Marbleton, Wyoming
Current Conditions -  °F | °C
As of 7:53 PM on Sunday 23 Nov 2014 (Local Time) from KBPI Reporting Station
Clear Clear  
Wind Chill: 25°   Ceiling: Unl
Heat Index: 25°   Visibility: 10mi
Dew Point:   Wind: 3mph
Humidity: 49%   Direction: 30°NNE
Pressure: 30.03"   Gusts: NA
Location:  42.5665°N, 110.311°W
Report Text: KBPI 240253Z AUTO 03003KT 10SM CLR M04/M13 A3003 RMK AO2 SLP188 T10391133 55000
Loading
Personal Weather Stations






























Interactive Weather Map New forecast layout! Learn more

10-Day Weather Forecast

Advertisements
Track Severe Weather on mobile